Explora — IXWQ — position and weather

sailwx.info

Track history (hours):
 
Tides and Currents Weather Stations Pressure Air Temp Water Temp Dewpoint Dewpoint Depression Visibility Wind Speed Wind Dir Waves Ship Positions

Oceanographic research ship Explora (Italy)

Detailed information on ship capabilities available from University of Delaware's Ocean Information Center.

Last reported at 2019-Apr-11 08:54 UTC. Time now 2019-Apr-18 21:01 UTC.
Position N 40°50' E 014°16'.

Length 73 m; draft 5.5 m.

Type: . MMSI: 247028700.

Date/timePositionNaut miles runAvg speedWind from/ knotsBaromVisibWave heightAir tempDewpointWater temp
2019-Apr-11 08:54N 40°50' E 014°16'0 0.0
2019-Apr-11 08:30N 40°50' E 014°16'0 0.0
2019-Apr-11 08:00N 40°50' E 014°16'0 0.0
2019-Apr-11 07:30N 40°50' E 014°16'0 0.0
2019-Apr-11 07:00N 40°50' E 014°16'0 0.0
2019-Apr-11 06:30N 40°50' E 014°16'0 0.0
2019-Apr-11 06:00N 40°50' E 014°16'0 0.0
2019-Apr-11 05:30N 40°50' E 014°16'0 0.0
2019-Apr-11 05:00N 40°50' E 014°16'0 0.0
2019-Apr-11 04:30N 40°50' E 014°16'0 0.0
2019-Apr-11 04:00N 40°50' E 014°16'0 0.0
2019-Apr-11 03:30N 40°50' E 014°16'0 0.0
2019-Apr-11 03:00N 40°50' E 014°16'0 0.0
2019-Apr-11 02:30N 40°50' E 014°16'0 0.0
2019-Apr-11 02:00N 40°50' E 014°16'0 0.0
2019-Apr-11 01:27N 40°50' E 014°16'0 0.0
2019-Apr-11 01:00N 40°50' E 014°16'0 0.0
2019-Apr-11 00:27N 40°50' E 014°16'0 0.0
2019-Apr-11 00:00N 40°50' E 014°16'0 0.0
2019-Apr-10 23:27N 40°50' E 014°16'0 0.0
2019-Apr-10 23:00N 40°50' E 014°16'0 0.0
2019-Apr-10 22:27N 40°50' E 014°16'0 0.0
2019-Apr-10 22:00N 40°50' E 014°16'0 0.0
2019-Apr-10 21:30N 40°50' E 014°16'0 0.0
2019-Apr-10 21:00N 40°50' E 014°16'0 0.0
2019-Apr-10 20:30N 40°50' E 014°16'0 0.0
2019-Apr-10 20:00N 40°50' E 014°16'0 0.0
2019-Apr-10 19:30N 40°50' E 014°16'0 0.0
2019-Apr-10 19:00N 40°50' E 014°16'0 0.0
2019-Apr-10 18:30N 40°50' E 014°16'0 0.0
2019-Apr-10 18:00N 40°50' E 014°16'0 0.0
2019-Apr-10 17:30N 40°50' E 014°16'0 0.0
2019-Apr-10 17:00N 40°50' E 014°16'0 0.0
2019-Apr-10 16:30N 40°50' E 014°16'0 0.0
2019-Apr-10 16:00N 40°50' E 014°16'0 0.0
2019-Apr-10 15:30N 40°50' E 014°16'0 0.0
2019-Apr-10 15:00N 40°50' E 014°16'0 0.0
2019-Apr-10 14:30N 40°50' E 014°16'0 0.0
2019-Apr-10 14:00N 40°50' E 014°16'0 0.0
2019-Apr-10 13:30N 40°50' E 014°16'0 0.0
2019-Apr-10 13:00N 40°50' E 014°16'0 0.0
2019-Apr-10 12:30N 40°50' E 014°16'0 0.0
2019-Apr-10 11:56N 40°50' E 014°16'0 0.4
2019-Apr-10 11:29N 40°50' E 014°16'0 0.6
2019-Apr-10 10:59N 40°51' E 014°16'0 0.0
2019-Apr-10 10:29N 40°51' E 014°16'0 0.0
2019-Apr-10 09:59N 40°51' E 014°16'0 0.0
2019-Apr-10 09:29N 40°51' E 014°16'0 0.0
2019-Apr-10 08:59N 40°51' E 014°16'0 0.0
2019-Apr-10 08:28N 40°51' E 014°16'0 0.0
2019-Apr-10 07:58N 40°51' E 014°16'0 0.0
2019-Apr-10 07:28N 40°51' E 014°16'0 0.0
2019-Apr-10 07:00N 40°51' E 014°16'1 2.2
2019-Apr-10 06:30N 40°50' E 014°17'3 5.3
2019-Apr-10 06:01N 40°47' E 014°17'3 5.8
2019-Apr-10 05:30N 40°44' E 014°17'5 9.9
2019-Apr-10 05:00N 40°39' E 014°16'5 9.7
2019-Apr-10 04:31N 40°34' E 014°17'5 9.7
2019-Apr-10 04:00N 40°30' E 014°19'5 9.8
2019-Apr-10 03:30N 40°25' E 014°22'5 9.7
2019-Apr-10 03:00N 40°21' E 014°26'5 9.3
2019-Apr-10 02:26N 40°16' E 014°29'93 9.3
2019-Apr-09 16:31N 38°53' E 015°22'0 9.2
2019-Apr-09 16:30N 38°53' E 015°22'4 8.8
2019-Apr-09 16:00N 38°49' E 015°24'4 8.8
2019-Apr-09 15:31N 38°45' E 015°26'4 8.7
2019-Apr-09 15:00N 38°41' E 015°28'4 8.5
2019-Apr-09 14:30N 38°37' E 015°30'4 8.5
2019-Apr-09 13:59N 38°33' E 015°33'4 8.5
2019-Apr-09 13:30N 38°30' E 015°35'4 8.4
2019-Apr-09 12:58N 38°26' E 015°38'4 8.4
2019-Apr-09 12:31N 38°22' E 015°40'4 8.0
2019-Apr-09 12:00N 38°18' E 015°42'3 7.0
2019-Apr-09 11:31N 38°15' E 015°40'3 6.2
2019-Apr-09 11:01N 38°13' E 015°37'4 8.2
2019-Apr-09 10:30N 38°09' E 015°37'4 7.9
2019-Apr-09 10:01N 38°05' E 015°36'4 8.0
2019-Apr-09 09:30N 38°01' E 015°35'7 8.4
2019-Apr-09 08:37N 37°55' E 015°30'1 8.6
2019-Apr-09 08:30N 37°54' E 015°30'8 9.1
2019-Apr-09 07:37N 37°47' E 015°25'3 9.6
2019-Apr-09 07:19N 37°44' E 015°23'4 9.6
2019-Apr-09 06:57N 37°41' E 015°20'  
Track history (hours):
 
Tides and Currents Weather Stations Pressure Air Temp Water Temp Dewpoint Dewpoint Depression Visibility Wind Speed Wind Dir Waves Ship Positions

Oceanographic research ship Explora (Italy)

Detailed information on ship capabilities available from University of Delaware's Ocean Information Center.

Last reported at 2019-Apr-11 08:54 UTC. Time now 2019-Apr-18 21:01 UTC.
Position N 40°50' E 014°16'.

Length 73 m; draft 5.5 m.

Type: . MMSI: 247028700.

Date/timePositionNaut miles runAvg speedWind from/ knotsBaromVisibWave heightAir tempDewpointWater temp
2019-Apr-11 08:54N 40°50' E 014°16'0 0.0
2019-Apr-11 08:30N 40°50' E 014°16'0 0.0
2019-Apr-11 08:00N 40°50' E 014°16'0 0.0
2019-Apr-11 07:30N 40°50' E 014°16'0 0.0
2019-Apr-11 07:00N 40°50' E 014°16'0 0.0
2019-Apr-11 06:30N 40°50' E 014°16'0 0.0
2019-Apr-11 06:00N 40°50' E 014°16'0 0.0
2019-Apr-11 05:30N 40°50' E 014°16'0 0.0
2019-Apr-11 05:00N 40°50' E 014°16'0 0.0
2019-Apr-11 04:30N 40°50' E 014°16'0 0.0
2019-Apr-11 04:00N 40°50' E 014°16'0 0.0
2019-Apr-11 03:30N 40°50' E 014°16'0 0.0
2019-Apr-11 03:00N 40°50' E 014°16'0 0.0
2019-Apr-11 02:30N 40°50' E 014°16'0 0.0
2019-Apr-11 02:00N 40°50' E 014°16'0 0.0
2019-Apr-11 01:27N 40°50' E 014°16'0 0.0
2019-Apr-11 01:00N 40°50' E 014°16'0 0.0
2019-Apr-11 00:27N 40°50' E 014°16'0 0.0
2019-Apr-11 00:00N 40°50' E 014°16'0 0.0
2019-Apr-10 23:27N 40°50' E 014°16'0 0.0
2019-Apr-10 23:00N 40°50' E 014°16'0 0.0
2019-Apr-10 22:27N 40°50' E 014°16'0 0.0
2019-Apr-10 22:00N 40°50' E 014°16'0 0.0
2019-Apr-10 21:30N 40°50' E 014°16'0 0.0
2019-Apr-10 21:00N 40°50' E 014°16'0 0.0
2019-Apr-10 20:30N 40°50' E 014°16'0 0.0
2019-Apr-10 20:00N 40°50' E 014°16'0 0.0
2019-Apr-10 19:30N 40°50' E 014°16'0 0.0
2019-Apr-10 19:00N 40°50' E 014°16'0 0.0
2019-Apr-10 18:30N 40°50' E 014°16'0 0.0
2019-Apr-10 18:00N 40°50' E 014°16'0 0.0
2019-Apr-10 17:30N 40°50' E 014°16'0 0.0
2019-Apr-10 17:00N 40°50' E 014°16'0 0.0
2019-Apr-10 16:30N 40°50' E 014°16'0 0.0
2019-Apr-10 16:00N 40°50' E 014°16'0 0.0
2019-Apr-10 15:30N 40°50' E 014°16'0 0.0
2019-Apr-10 15:00N 40°50' E 014°16'0 0.0
2019-Apr-10 14:30N 40°50' E 014°16'0 0.0
2019-Apr-10 14:00N 40°50' E 014°16'0 0.0
2019-Apr-10 13:30N 40°50' E 014°16'0 0.0
2019-Apr-10 13:00N 40°50' E 014°16'0 0.0
2019-Apr-10 12:30N 40°50' E 014°16'0 0.0
2019-Apr-10 11:56N 40°50' E 014°16'0 0.4
2019-Apr-10 11:29N 40°50' E 014°16'0 0.6
2019-Apr-10 10:59N 40°51' E 014°16'0 0.0
2019-Apr-10 10:29N 40°51' E 014°16'0 0.0
2019-Apr-10 09:59N 40°51' E 014°16'0 0.0
2019-Apr-10 09:29N 40°51' E 014°16'0 0.0
2019-Apr-10 08:59N 40°51' E 014°16'0 0.0
2019-Apr-10 08:28N 40°51' E 014°16'0 0.0
2019-Apr-10 07:58N 40°51' E 014°16'0 0.0
2019-Apr-10 07:28N 40°51' E 014°16'0 0.0
2019-Apr-10 07:00N 40°51' E 014°16'1 2.2
2019-Apr-10 06:30N 40°50' E 014°17'3 5.3
2019-Apr-10 06:01N 40°47' E 014°17'3 5.8
2019-Apr-10 05:30N 40°44' E 014°17'5 9.9
2019-Apr-10 05:00N 40°39' E 014°16'5 9.7
2019-Apr-10 04:31N 40°34' E 014°17'5 9.7
2019-Apr-10 04:00N 40°30' E 014°19'5 9.8
2019-Apr-10 03:30N 40°25' E 014°22'5 9.7
2019-Apr-10 03:00N 40°21' E 014°26'5 9.3
2019-Apr-10 02:26N 40°16' E 014°29'93 9.3
2019-Apr-09 16:31N 38°53' E 015°22'0 9.2
2019-Apr-09 16:30N 38°53' E 015°22'4 8.8
2019-Apr-09 16:00N 38°49' E 015°24'4 8.8
2019-Apr-09 15:31N 38°45' E 015°26'4 8.7
2019-Apr-09 15:00N 38°41' E 015°28'4 8.5
2019-Apr-09 14:30N 38°37' E 015°30'4 8.5
2019-Apr-09 13:59N 38°33' E 015°33'4 8.5
2019-Apr-09 13:30N 38°30' E 015°35'4 8.4
2019-Apr-09 12:58N 38°26' E 015°38'4 8.4
2019-Apr-09 12:31N 38°22' E 015°40'4 8.0
2019-Apr-09 12:00N 38°18' E 015°42'3 7.0
2019-Apr-09 11:31N 38°15' E 015°40'3 6.2
2019-Apr-09 11:01N 38°13' E 015°37'4 8.2
2019-Apr-09 10:30N 38°09' E 015°37'4 7.9
2019-Apr-09 10:01N 38°05' E 015°36'4 8.0
2019-Apr-09 09:30N 38°01' E 015°35'7 8.4
2019-Apr-09 08:37N 37°55' E 015°30'1 8.6
2019-Apr-09 08:30N 37°54' E 015°30'8 9.1
2019-Apr-09 07:37N 37°47' E 015°25'3 9.6
2019-Apr-09 07:19N 37°44' E 015°23'4 9.6
2019-Apr-09 06:57N 37°41' E 015°20'  

Dump ship's entire track history